Tukertown, Arkansas
Current Conditions -  °F | °C
As of 4:53 AM on Saturday 20 Dec 2014 (Local Time) from KHKA Reporting Station
Overcast Overcast  
Wind Chill: 34°   Ceiling: 3900
Heat Index: 38°   Visibility: 10mi
Dew Point: 33°   Wind: 5mph
Humidity: 83%   Direction: 50°NE
Pressure: 30.25"   Gusts: NA
Location:  35.809°N, 89.9565°W
Report Text: KHKA 201053Z AUTO 05004KT 10SM OVC039 03/01 A3025 RMK AO2 SLP245 T00330006
Loading
Personal Weather Stations






























Interactive Weather Map New forecast layout! Learn more

10-Day Weather Forecast

Advertisements
Track Severe Weather on mobile